Terminal Aerodrome Forecast
Issued by NWS Wilmington, OH

Current Version | Previous Version | Text Only | Print | Product List | Glossary Off
Versions: 1 2 3 4 5 6 7 8 9 10 11 12 13 14 15 16 17 18 19 20 21 22 23 24

018
FTUS41 KILN 131136
TAFDAY
TAF
KDAY 131136Z 1312/1412 35012G22KT P6SM OVC025
     FM131300 35012KT P6SM SCT025
     FM131700 33012KT P6SM BKN025
     FM140700 00000KT P6SM SCT025=

USA.gov is the U.S. government's official web portal to all federal, state and local government web resources and services.